Time,TemperatureF,DewpointF,PressureIn,WindDirection,WindDirectionDegrees,WindSpeedMPH,WindSpeedGustMPH,Humidity,HourlyPrecipIn,Conditions,Clouds,dailyrainin,SoftwareType,DateUTC
2013-11-03 00:01:00,40.6,39.0,29.98,NE,54,0.0,8.0,94,0.02,,-RA,0.61,VWS V13.01,2013-11-03 04:01:00,
2013-11-03 00:02:00,40.6,39.0,29.99,NNE,27,0.0,2.0,94,0.02,,-RA,0.00,VWS V13.01,2013-11-03 04:02:00,
2013-11-03 00:03:00,40.5,38.9,29.99,NNE,23,0.0,3.0,94,0.02,,-RA,0.00,VWS V13.01,2013-11-03 04:03:00,
2013-11-03 00:08:00,40.5,38.9,29.99,NNE,19,0.0,3.0,94,0.02,,-RA,0.00,VWS V13.01,2013-11-03 04:08:00,
2013-11-03 00:13:00,40.5,38.9,29.99,East,85,3.0,4.0,94,0.02,,-RA,0.00,VWS V13.01,2013-11-03 04:13:00,
2013-11-03 00:18:00,40.5,38.9,29.99,ENE,65,1.0,4.0,94,0.02,,-RA,0.00,VWS V13.01,2013-11-03 04:18:00,
2013-11-03 00:23:00,40.6,39.0,29.99,ENE,68,0.0,6.0,94,0.02,,-RA,0.00,VWS V13.01,2013-11-03 04:23:00,
2013-11-03 00:28:00,40.6,39.0,29.99,NE,46,0.0,6.0,94,0.02,,-RA,0.00,VWS V13.01,2013-11-03 04:28:00,
2013-11-03 00:33:00,40.6,39.0,29.99,ENE,69,0.0,2.0,94,0.01,,-RA,0.00,VWS V13.01,2013-11-03 04:33:00,
2013-11-03 00:38:00,40.6,38.7,29.99,NW,325,0.0,2.0,93,0.01,,-RA,0.00,VWS V13.01,2013-11-03 04:38:00,
2013-11-03 00:43:00,40.6,38.7,30.00,North,5,0.0,3.0,93,0.01,,-RA,0.00,VWS V13.01,2013-11-03 04:43:00,
2013-11-03 00:48:00,40.6,38.7,30.00,NNW,333,0.0,6.0,93,0.01,,OVC032,0.00,VWS V13.01,2013-11-03 04:48:00,
2013-11-03 00:53:00,40.5,38.6,30.00,East,82,3.0,10.0,93,0.01,,OVC032,0.00,VWS V13.01,2013-11-03 04:53:00,
2013-11-03 00:58:00,40.5,38.6,30.00,ENE,74,0.0,10.0,93,0.01,,OVC032,0.00,VWS V13.01,2013-11-03 04:58:00,
2013-11-03 01:00:00,39.2,36.0,30.03,NNW,347,4.0,7.0,88,0.00,,BKN038,0.00,VWS V13.01,2013-11-03 05:00:00,
2013-11-03 01:01:00,39.2,36.2,30.03,North,355,0.0,7.0,89,0.00,,BKN038,0.00,VWS V13.01,2013-11-03 05:01:00,
2013-11-03 01:02:00,39.2,36.2,30.03,ENE,67,0.0,7.0,89,0.00,,BKN038,0.00,VWS V13.01,2013-11-03 05:02:00,
2013-11-03 01:03:00,40.5,38.4,30.00,NE,45,0.0,3.0,92,0.00,,OVC030,0.00,VWS V13.01,2013-11-03 05:03:00,
2013-11-03 01:04:00,39.3,36.3,30.03,North,349,0.0,7.0,89,0.00,,BKN038,0.00,VWS V13.01,2013-11-03 05:04:00,
2013-11-03 01:05:00,39.3,36.3,30.03,North,349,0.0,7.0,89,0.00,,BKN038,0.00,VWS V13.01,2013-11-03 05:05:00,
2013-11-03 01:06:00,39.3,36.3,30.03,North,349,0.0,7.0,89,0.00,,BKN038,0.00,VWS V13.01,2013-11-03 05:06:00,
2013-11-03 01:07:00,39.3,36.3,30.03,West,280,0.0,7.0,89,0.00,,BKN038,0.00,VWS V13.01,2013-11-03 05:07:00,
2013-11-03 01:08:00,40.5,38.4,30.00,ENE,67,0.0,9.0,92,0.00,,OVC030,0.00,VWS V13.01,2013-11-03 05:08:00,
2013-11-03 01:09:00,39.3,36.3,30.03,West,280,0.0,7.0,89,0.00,,BKN038,0.00,VWS V13.01,2013-11-03 05:09:00,
2013-11-03 01:10:00,39.3,36.3,30.03,NNW,331,0.0,7.0,89,0.00,,BKN038,0.00,VWS V13.01,2013-11-03 05:10:00,
2013-11-03 01:11:00,39.3,36.3,30.04,NNW,331,0.0,7.0,89,0.00,,BKN038,0.00,VWS V13.01,2013-11-03 05:11:00,
2013-11-03 01:13:00,40.5,38.1,30.01,ENE,59,1.0,9.0,91,0.00,,OVC030,0.00,VWS V13.01,2013-11-03 05:13:00,
2013-11-03 01:14:00,39.3,36.3,30.04,North,355,0.0,7.0,89,0.00,,BKN038,0.00,VWS V13.01,2013-11-03 05:14:00,
2013-11-03 01:15:00,39.3,36.3,30.04,North,355,1.0,7.0,89,0.00,,BKN038,0.00,VWS V13.01,2013-11-03 05:15:00,
2013-11-03 01:16:00,39.4,36.4,30.04,WNW,288,0.0,7.0,89,0.00,,BKN038,0.00,VWS V13.01,2013-11-03 05:16:00,
2013-11-03 01:18:00,40.3,37.9,30.01,ENE,63,1.0,9.0,91,0.00,,OVC030,0.00,VWS V13.01,2013-11-03 05:18:00,
2013-11-03 01:23:00,40.2,37.5,30.01,ENE,66,0.0,9.0,90,0.00,,OVC030,0.00,VWS V13.01,2013-11-03 05:23:00,
2013-11-03 01:28:00,40.0,37.3,30.01,NE,53,0.0,9.0,90,0.00,,OVC030,0.00,VWS V13.01,2013-11-03 05:28:00,
2013-11-03 01:33:00,39.9,36.9,30.01,ENE,74,0.0,2.0,89,0.00,,OVC030,0.00,VWS V13.01,2013-11-03 05:33:00,
2013-11-03 01:38:00,39.7,36.7,30.02,ENE,71,0.0,5.0,89,0.00,,OVC030,0.00,VWS V13.01,2013-11-03 05:38:00,
2013-11-03 01:43:00,39.5,36.5,30.02,NNE,32,0.0,7.0,89,0.00,,OVC030,0.00,VWS V13.01,2013-11-03 05:43:00,
2013-11-03 01:48:00,39.4,36.4,30.02,NNW,329,0.0,7.0,89,0.00,,OVC030,0.00,VWS V13.01,2013-11-03 05:48:00,
2013-11-03 01:53:00,39.3,36.3,30.02,NE,48,0.0,7.0,89,0.00,,OVC030,0.00,VWS V13.01,2013-11-03 05:53:00,
2013-11-03 01:58:00,39.2,36.2,30.03,ENE,74,0.0,7.0,89,0.00,,OVC030,0.00,VWS V13.01,2013-11-03 05:58:00,
2013-11-03 01:09:00,39.3,36.3,30.03,West,280,0.0,7.0,89,0.00,,BKN038,0.00,VWS V13.01,2013-11-03 06:09:00,
2013-11-03 01:14:00,39.3,36.3,30.04,NNE,12,1.0,7.0,89,0.00,,BKN038,0.00,VWS V13.01,2013-11-03 06:14:00,
2013-11-03 01:19:00,39.5,36.5,30.04,WNW,289,0.0,7.0,89,0.00,,BKN038,0.00,VWS V13.01,2013-11-03 06:19:00,
2013-11-03 01:24:00,39.6,36.6,30.04,North,9,0.0,7.0,89,0.00,,BKN038,0.00,VWS V13.01,2013-11-03 06:24:00,
2013-11-03 01:29:00,39.8,36.8,30.04,North,355,4.0,7.0,89,0.00,,BKN038,0.00,VWS V13.01,2013-11-03 06:29:00,
2013-11-03 01:34:00,39.8,36.8,30.04,North,355,0.0,7.0,89,0.00,,BKN038,0.00,VWS V13.01,2013-11-03 06:34:00,
2013-11-03 01:39:00,39.9,36.6,30.04,North,355,0.0,7.0,88,0.00,,BKN038,0.00,VWS V13.01,2013-11-03 06:39:00,
2013-11-03 01:44:00,39.9,36.6,30.04,North,5,0.0,7.0,88,0.00,,BKN038,0.00,VWS V13.01,2013-11-03 06:44:00,
2013-11-03 01:49:00,40.0,36.7,30.05,North,11,0.0,7.0,88,0.00,,BKN038,0.00,VWS V13.01,2013-11-03 06:49:00,
2013-11-03 01:54:00,40.0,36.7,30.05,NNW,340,1.0,7.0,88,0.00,,BKN038,0.00,VWS V13.01,2013-11-03 06:54:00,
2013-11-03 01:59:00,40.0,36.7,30.05,NW,315,0.0,7.0,88,0.00,,BKN038,0.00,VWS V13.01,2013-11-03 06:59:00,
2013-11-03 02:04:00,40.1,36.5,30.06,NNW,329,0.0,4.0,87,0.00,,OVC037,0.00,VWS V13.01,2013-11-03 07:04:00,
2013-11-03 02:09:00,40.2,36.7,30.06,North,5,4.0,4.0,87,0.00,,OVC037,0.00,VWS V13.01,2013-11-03 07:09:00,
2013-11-03 02:15:00,40.2,36.7,30.06,North,351,0.0,5.0,87,0.00,,OVC037,0.00,VWS V13.01,2013-11-03 07:15:00,
2013-11-03 02:20:00,40.2,36.7,30.06,ENE,63,0.0,5.0,87,0.00,,OVC037,0.00,VWS V13.01,2013-11-03 07:20:00,
2013-11-03 02:25:00,40.2,36.7,30.07,WNW,300,0.0,5.0,87,0.00,,OVC037,0.00,VWS V13.01,2013-11-03 07:25:00,
2013-11-03 02:30:00,40.1,36.5,30.07,ENE,65,1.0,5.0,87,0.00,,OVC037,0.00,VWS V13.01,2013-11-03 07:30:00,
2013-11-03 02:35:00,40.0,36.5,30.07,NNW,331,0.0,3.0,87,0.00,,OVC037,0.00,VWS V13.01,2013-11-03 07:35:00,
2013-11-03 02:40:00,40.0,36.2,30.07,East,81,0.0,4.0,86,0.00,,OVC037,0.00,VWS V13.01,2013-11-03 07:40:00,
2013-11-03 02:45:00,40.0,36.2,30.08,ENE,76,0.0,4.0,86,0.00,,OVC037,0.00,VWS V13.01,2013-11-03 07:45:00,
2013-11-03 02:50:00,40.0,36.2,30.08,NE,34,0.0,4.0,86,0.00,,OVC037,0.00,VWS V13.01,2013-11-03 07:50:00,
2013-11-03 02:55:00,39.9,36.1,30.08,NE,45,0.0,4.0,86,0.00,,OVC037,0.00,VWS V13.01,2013-11-03 07:55:00,
2013-11-03 03:00:00,39.8,35.7,30.08,NNE,25,2.0,4.0,85,0.00,,OVC037,0.00,VWS V13.01,2013-11-03 08:00:00,
2013-11-03 03:05:00,39.8,35.7,30.08,NNE,25,0.0,1.0,85,0.00,,OVC037,0.00,VWS V13.01,2013-11-03 08:05:00,
2013-11-03 03:10:00,39.7,35.6,30.08,East,87,0.0,7.0,85,0.00,,OVC037,0.00,VWS V13.01,2013-11-03 08:10:00,
2013-11-03 03:15:00,39.6,35.5,30.08,East,98,0.0,7.0,85,0.00,,OVC037,0.00,VWS V13.01,2013-11-03 08:15:00,
2013-11-03 03:20:00,39.6,35.2,30.09,ENE,65,0.0,7.0,84,0.00,,OVC037,0.00,VWS V13.01,2013-11-03 08:20:00,
2013-11-03 03:25:00,39.4,35.0,30.09,ENE,64,0.0,7.0,84,0.00,,OVC037,0.00,VWS V13.01,2013-11-03 08:25:00,
2013-11-03 03:30:00,39.3,34.9,30.09,ENE,64,0.0,7.0,84,0.00,,OVC037,0.00,VWS V13.01,2013-11-03 08:30:00,
2013-11-03 03:35:00,39.1,34.7,30.10,ENE,64,0.0,1.0,84,0.00,,OVC037,0.00,VWS V13.01,2013-11-03 08:35:00,
2013-11-03 03:40:00,38.9,34.5,30.10,NNE,21,0.0,2.0,84,0.00,,OVC037,0.00,VWS V13.01,2013-11-03 08:40:00,
2013-11-03 03:45:00,38.8,34.7,30.10,NNE,21,0.0,2.0,85,0.00,,OVC037,0.00,VWS V13.01,2013-11-03 08:45:00,
2013-11-03 03:50:00,38.6,34.5,30.10,NNE,21,0.0,2.0,85,0.00,,OVC037,0.00,VWS V13.01,2013-11-03 08:50:00,
2013-11-03 03:55:00,38.6,34.5,30.11,NNE,21,0.0,2.0,85,0.00,,OVC037,0.00,VWS V13.01,2013-11-03 08:55:00,
2013-11-03 04:00:00,38.4,34.3,30.11,ENE,67,0.0,2.0,85,0.00,,OVC037,0.00,VWS V13.01,2013-11-03 09:00:00,
2013-11-03 04:05:00,38.3,34.2,30.11,ENE,67,0.0,1.0,85,0.00,,OVC037,0.00,VWS V13.01,2013-11-03 09:05:00,
2013-11-03 04:10:00,38.1,33.7,30.12,NE,38,0.0,2.0,84,0.00,,OVC037,0.00,VWS V13.01,2013-11-03 09:10:00,
2013-11-03 04:15:00,38.0,33.9,30.12,NE,38,0.0,2.0,85,0.00,,OVC032,0.00,VWS V13.01,2013-11-03 09:15:00,
2013-11-03 04:20:00,37.8,33.4,30.12,NE,38,0.0,2.0,84,0.00,,OVC032,0.00,VWS V13.01,2013-11-03 09:20:00,
2013-11-03 04:25:00,37.7,33.3,30.13,NE,38,0.0,2.0,84,0.00,,OVC032,0.00,VWS V13.01,2013-11-03 09:25:00,
2013-11-03 04:30:00,37.8,33.7,30.13,NE,42,0.0,2.0,85,0.00,,OVC032,0.00,VWS V13.01,2013-11-03 09:30:00,
2013-11-03 04:35:00,37.8,33.7,30.13,WNW,294,1.0,2.0,85,0.00,,OVC032,0.00,VWS V13.01,2013-11-03 09:35:00,
2013-11-03 04:40:00,38.0,34.2,30.14,NNW,346,0.0,4.0,86,0.00,,OVC032,0.00,VWS V13.01,2013-11-03 09:40:00,
2013-11-03 04:45:00,38.1,34.0,30.14,North,355,0.0,4.0,85,0.00,,OVC034,0.00,VWS V13.01,2013-11-03 09:45:00,
2013-11-03 04:50:00,38.2,34.1,30.14,NNW,343,0.0,4.0,85,0.00,,OVC034,0.00,VWS V13.01,2013-11-03 09:50:00,
2013-11-03 04:55:00,38.3,34.2,30.15,ENE,72,3.0,4.0,85,0.00,,OVC034,0.00,VWS V13.01,2013-11-03 09:55:00,
2013-11-03 05:00:00,38.4,34.0,30.15,North,9,0.0,4.0,84,0.00,,OVC034,0.00,VWS V13.01,2013-11-03 10:00:00,
2013-11-03 05:05:00,38.4,34.0,30.15,ENE,74,0.0,3.0,84,0.00,,OVC034,0.00,VWS V13.01,2013-11-03 10:05:00,
2013-11-03 05:10:00,38.5,34.1,30.15,SSE,151,0.0,3.0,84,0.00,,OVC034,0.00,VWS V13.01,2013-11-03 10:10:00,
2013-11-03 05:15:00,38.5,34.1,30.16,SSE,151,0.0,3.0,84,0.00,,OVC035,0.00,VWS V13.01,2013-11-03 10:15:00,
2013-11-03 05:20:00,38.4,34.0,30.16,NE,34,0.0,4.0,84,0.00,,OVC035,0.00,VWS V13.01,2013-11-03 10:20:00,
2013-11-03 05:25:00,38.4,33.7,30.16,ENE,71,3.0,4.0,83,0.00,,OVC035,0.00,VWS V13.01,2013-11-03 10:25:00,
2013-11-03 05:31:00,38.4,33.7,30.16,ENE,75,0.0,7.0,83,0.00,,OVC030,0.00,VWS V13.01,2013-11-03 10:31:00,
2013-11-03 05:35:00,38.4,33.7,30.17,NNE,30,0.0,1.0,83,0.00,,OVC030,0.00,VWS V13.01,2013-11-03 10:35:00,
2013-11-03 05:40:00,38.4,33.7,30.17,North,5,0.0,5.0,83,0.00,,OVC030,0.00,VWS V13.01,2013-11-03 10:40:00,
2013-11-03 05:46:00,38.3,33.6,30.17,North,350,0.0,9.0,83,0.00,,OVC030,0.00,VWS V13.01,2013-11-03 10:46:00,
2013-11-03 05:51:00,38.4,34.0,30.17,NE,54,0.0,9.0,84,0.00,,OVC030,0.00,VWS V13.01,2013-11-03 10:51:00,
2013-11-03 05:56:00,38.4,34.3,30.17,North,10,0.0,9.0,85,0.00,,OVC030,0.00,VWS V13.01,2013-11-03 10:56:00,
2013-11-03 06:01:00,38.3,34.2,30.17,WNW,294,3.0,11.0,85,0.00,,OVC032,0.00,VWS V13.01,2013-11-03 11:01:00,
2013-11-03 06:06:00,38.3,34.2,30.18,North,360,0.0,6.0,85,0.00,,OVC032,0.00,VWS V13.01,2013-11-03 11:06:00,
2013-11-03 06:11:00,38.3,34.2,30.18,East,100,0.0,6.0,85,0.00,,OVC032,0.00,VWS V13.01,2013-11-03 11:11:00,
2013-11-03 06:16:00,38.2,34.1,30.18,NNE,19,0.0,6.0,85,0.00,,OVC030,0.00,VWS V13.01,2013-11-03 11:16:00,
2013-11-03 06:21:00,38.2,34.1,30.18,NW,325,0.0,6.0,85,0.00,,OVC030,0.00,VWS V13.01,2013-11-03 11:21:00,
2013-11-03 06:26:00,38.1,33.7,30.19,West,277,0.0,6.0,84,0.00,,OVC030,0.00,VWS V13.01,2013-11-03 11:26:00,
2013-11-03 06:31:00,38.1,33.7,30.19,North,355,0.0,6.0,84,0.00,,OVC030,0.00,VWS V13.01,2013-11-03 11:31:00,
2013-11-03 06:36:00,38.0,33.6,30.20,North,360,0.0,7.0,84,0.00,,OVC030,0.00,VWS V13.01,2013-11-03 11:36:00,
2013-11-03 06:41:00,38.0,33.6,30.20,NNW,344,0.0,7.0,84,0.00,,OVC030,0.00,VWS V13.01,2013-11-03 11:41:00,
2013-11-03 06:46:00,38.0,33.6,30.20,NW,317,0.0,7.0,84,0.00,,OVC030,0.00,VWS V13.01,2013-11-03 11:46:00,
2013-11-03 06:51:00,38.0,33.3,30.21,ENE,73,3.0,7.0,83,0.00,,OVC030,0.00,VWS V13.01,2013-11-03 11:51:00,
2013-11-03 06:56:00,38.0,33.3,30.21,NNW,340,0.0,7.0,83,0.00,,OVC030,0.00,VWS V13.01,2013-11-03 11:56:00,
2013-11-03 07:01:00,37.9,33.2,30.21,NNE,17,0.0,7.0,83,0.00,,OVC033,0.00,VWS V13.01,2013-11-03 12:01:00,
2013-11-03 07:06:00,37.9,33.2,30.21,North,360,0.0,4.0,83,0.00,,OVC033,0.00,VWS V13.01,2013-11-03 12:06:00,
2013-11-03 07:11:00,37.8,32.8,30.22,NNW,336,0.0,9.0,82,0.00,,OVC033,0.00,VWS V13.01,2013-11-03 12:11:00,
2013-11-03 07:16:00,37.8,32.8,30.22,NNW,337,1.0,9.0,82,0.00,,OVC033,0.00,VWS V13.01,2013-11-03 12:16:00,
2013-11-03 07:21:00,37.7,32.7,30.23,NNW,346,0.0,9.0,82,0.00,,OVC033,0.00,VWS V13.01,2013-11-03 12:21:00,
2013-11-03 07:26:00,37.7,32.7,30.23,ENE,61,0.0,9.0,82,0.00,,OVC033,0.00,VWS V13.01,2013-11-03 12:26:00,
2013-11-03 07:31:00,37.5,32.2,30.24,NE,44,1.0,9.0,81,0.00,,OVC034,0.00,VWS V13.01,2013-11-03 12:31:00,
2013-11-03 07:36:00,37.3,32.0,30.24,NE,44,0.0,1.0,81,0.00,,OVC034,0.00,VWS V13.01,2013-11-03 12:36:00,
2013-11-03 07:41:00,37.1,31.8,30.25,ENE,63,0.0,1.0,81,0.00,,OVC034,0.00,VWS V13.01,2013-11-03 12:41:00,
2013-11-03 07:46:00,37.0,31.7,30.25,ENE,63,0.0,1.0,81,0.00,,OVC034,0.00,VWS V13.01,2013-11-03 12:46:00,
2013-11-03 07:51:00,36.9,31.6,30.25,NE,51,0.0,1.0,81,0.00,,OVC034,0.00,VWS V13.01,2013-11-03 12:51:00,
2013-11-03 07:56:00,36.8,31.8,30.25,NE,51,0.0,2.0,82,0.00,,OVC034,0.00,VWS V13.01,2013-11-03 12:56:00,
2013-11-03 08:03:00,36.8,31.5,30.26,NNW,348,0.0,2.0,81,0.00,,FEW028,0.00,VWS V13.01,2013-11-03 13:03:00,
2013-11-03 08:08:00,36.9,31.6,30.26,NNW,348,1.0,2.0,81,0.00,,FEW028,0.00,VWS V13.01,2013-11-03 13:08:00,
2013-11-03 08:13:00,37.0,31.4,30.26,ENE,59,1.0,2.0,80,0.00,,FEW028,0.00,VWS V13.01,2013-11-03 13:13:00,
2013-11-03 08:18:00,37.3,31.7,30.27,NE,47,0.0,2.0,80,0.00,,FEW028,0.00,VWS V13.01,2013-11-03 13:18:00,
2013-11-03 08:23:00,37.7,32.1,30.27,NE,44,0.0,2.0,80,0.00,,FEW028,0.00,VWS V13.01,2013-11-03 13:23:00,
2013-11-03 08:28:00,38.0,32.4,30.27,NNE,19,1.0,6.0,80,0.00,,FEW028,0.00,VWS V13.01,2013-11-03 13:28:00,
2013-11-03 08:33:00,38.4,32.8,30.28,WNW,286,0.0,4.0,80,0.00,,FEW028,0.00,VWS V13.01,2013-11-03 13:33:00,
2013-11-03 08:38:00,38.6,32.3,30.28,North,355,2.0,4.0,78,0.00,,FEW028,0.00,VWS V13.01,2013-11-03 13:38:00,
2013-11-03 08:43:00,38.7,32.4,30.28,North,355,0.0,4.0,78,0.00,,FEW028,0.00,VWS V13.01,2013-11-03 13:43:00,
2013-11-03 08:48:00,38.6,31.7,30.28,NNW,347,0.0,4.0,76,0.00,,BKN027,0.00,VWS V13.01,2013-11-03 13:48:00,
2013-11-03 08:53:00,38.6,31.7,30.28,ENE,70,0.0,4.0,76,0.00,,BKN027,0.00,VWS V13.01,2013-11-03 13:53:00,
2013-11-03 08:58:00,38.7,31.8,30.28,West,273,1.0,4.0,76,0.00,,BKN027,0.00,VWS V13.01,2013-11-03 13:58:00,
2013-11-03 09:03:00,38.9,32.3,30.28,NE,49,0.0,3.0,77,0.00,,SCT029,0.00,VWS V13.01,2013-11-03 14:03:00,
2013-11-03 09:08:00,39.2,32.3,30.28,North,355,0.0,5.0,76,0.00,,SCT029,0.00,VWS V13.01,2013-11-03 14:08:00,
2013-11-03 09:13:00,39.4,32.5,30.29,North,360,0.0,5.0,76,0.00,,SCT029,0.00,VWS V13.01,2013-11-03 14:13:00,
2013-11-03 09:18:00,39.9,32.3,30.29,SW,221,1.0,5.0,74,0.00,,SCT029,0.00,VWS V13.01,2013-11-03 14:18:00,
2013-11-03 09:23:00,40.2,32.2,30.29,ENE,74,0.0,5.0,73,0.00,,SCT029,0.00,VWS V13.01,2013-11-03 14:23:00,
2013-11-03 09:28:00,40.4,32.4,30.30,WNW,299,4.0,5.0,73,0.00,,SCT029,0.00,VWS V13.01,2013-11-03 14:28:00,
2013-11-03 09:33:00,40.5,32.5,30.30,NNE,22,0.0,2.0,73,0.00,,SCT029,0.00,VWS V13.01,2013-11-03 14:33:00,
2013-11-03 09:38:00,40.6,32.6,30.30,ENE,71,1.0,4.0,73,0.00,,SCT029,0.00,VWS V13.01,2013-11-03 14:38:00,
2013-11-03 09:43:00,40.6,32.6,30.30,NNE,17,0.0,4.0,73,0.00,,SCT029,0.00,VWS V13.01,2013-11-03 14:43:00,
2013-11-03 09:48:00,40.8,32.8,30.31,NNW,329,2.0,4.0,73,0.00,,SCT029,0.00,VWS V13.01,2013-11-03 14:48:00,
2013-11-03 09:53:00,40.7,32.0,30.31,North,10,2.0,6.0,71,0.00,,SCT029,0.00,VWS V13.01,2013-11-03 14:53:00,
2013-11-03 09:58:00,40.4,32.4,30.31,North,355,0.0,6.0,73,0.00,,SCT029,0.00,VWS V13.01,2013-11-03 14:58:00,
2013-11-03 10:03:00,40.1,32.5,30.31,NNW,344,0.0,4.0,74,0.00,,BKN038,0.00,VWS V13.01,2013-11-03 15:03:00,
2013-11-03 10:08:00,39.7,32.1,30.31,North,355,1.0,6.0,74,0.00,,BKN038,0.00,VWS V13.01,2013-11-03 15:08:00,
2013-11-03 10:13:00,39.4,31.8,30.31,WSW,250,1.0,6.0,74,0.00,,BKN038,0.00,VWS V13.01,2013-11-03 15:13:00,
2013-11-03 10:18:00,39.6,32.3,30.31,North,9,0.0,6.0,75,0.00,,BKN038,0.00,VWS V13.01,2013-11-03 15:18:00,
2013-11-03 10:23:00,40.0,32.4,30.32,West,275,2.0,6.0,74,0.00,,BKN038,0.00,VWS V13.01,2013-11-03 15:23:00,
2013-11-03 10:28:00,40.1,32.5,30.33,NNW,348,0.0,6.0,74,0.00,,BKN038,0.00,VWS V13.01,2013-11-03 15:28:00,
2013-11-03 10:33:00,40.4,32.4,30.33,West,268,0.0,12.0,73,0.00,,BKN038,0.00,VWS V13.01,2013-11-03 15:33:00,
2013-11-03 10:38:00,40.7,32.7,30.33,North,355,0.0,12.0,73,0.00,,BKN038,0.00,VWS V13.01,2013-11-03 15:38:00,
2013-11-03 10:43:00,40.6,33.0,30.33,North,360,0.0,12.0,74,0.00,,BKN038,0.00,VWS V13.01,2013-11-03 15:43:00,
2013-11-03 10:49:00,40.1,31.8,30.34,NNW,344,0.0,12.0,72,0.00,,BKN038,0.00,VWS V13.01,2013-11-03 15:49:00,
2013-11-03 10:54:00,39.8,32.2,30.34,NW,306,0.0,12.0,74,0.00,,BKN038,0.00,VWS V13.01,2013-11-03 15:54:00,
2013-11-03 10:59:00,39.7,32.1,30.34,West,271,0.0,12.0,74,0.00,,BKN038,0.00,VWS V13.01,2013-11-03 15:59:00,
2013-11-03 11:04:00,39.6,32.0,30.33,NW,325,2.0,4.0,74,0.00,,SCT040,0.00,VWS V13.01,2013-11-03 16:04:00,
2013-11-03 11:09:00,39.6,32.0,30.34,WNW,295,3.0,6.0,74,0.00,,SCT040,0.00,VWS V13.01,2013-11-03 16:09:00,
2013-11-03 11:14:00,39.6,32.0,30.34,North,355,5.0,6.0,74,0.00,,SCT040,0.00,VWS V13.01,2013-11-03 16:14:00,
2013-11-03 11:19:00,39.7,32.1,30.34,ENE,65,4.0,6.0,74,0.00,,SCT040,0.00,VWS V13.01,2013-11-03 16:19:00,
2013-11-03 11:24:00,39.5,31.6,30.34,NNE,22,1.0,6.0,73,0.00,,SCT040,0.00,VWS V13.01,2013-11-03 16:24:00,
2013-11-03 11:29:00,39.4,31.1,30.33,WNW,290,0.0,6.0,72,0.00,,SCT040,0.00,VWS V13.01,2013-11-03 16:29:00,
2013-11-03 11:34:00,39.4,31.1,30.34,North,355,2.0,4.0,72,0.00,,SCT040,0.00,VWS V13.01,2013-11-03 16:34:00,
2013-11-03 11:39:00,39.2,31.0,30.34,West,279,2.0,5.0,72,0.00,,SCT040,0.00,VWS V13.01,2013-11-03 16:39:00,
2013-11-03 11:44:00,39.1,30.9,30.33,NNW,344,0.0,7.0,72,0.00,,SCT040,0.00,VWS V13.01,2013-11-03 16:44:00,
2013-11-03 11:49:00,39.2,31.0,30.34,NNW,348,0.0,7.0,72,0.00,,SCT040,0.00,VWS V13.01,2013-11-03 16:49:00,
2013-11-03 11:54:00,39.3,31.0,30.33,WNW,289,3.0,7.0,72,0.00,,SCT040,0.00,VWS V13.01,2013-11-03 16:54:00,
2013-11-03 11:59:00,39.5,31.2,30.33,North,349,4.0,7.0,72,0.00,,SCT040,0.00,VWS V13.01,2013-11-03 16:59:00,
2013-11-03 12:04:00,39.5,31.2,30.34,West,269,0.0,6.0,72,0.00,,FEW030,0.00,VWS V13.01,2013-11-03 17:04:00,
2013-11-03 12:09:00,39.3,30.7,30.34,NNE,21,1.0,11.0,71,0.00,,FEW030,0.00,VWS V13.01,2013-11-03 17:09:00,
2013-11-03 12:14:00,39.1,30.9,30.34,North,355,0.0,11.0,72,0.00,,FEW030,0.00,VWS V13.01,2013-11-03 17:14:00,
2013-11-03 12:19:00,39.3,31.4,30.34,NNE,16,1.0,11.0,73,0.00,,FEW030,0.00,VWS V13.01,2013-11-03 17:19:00,
2013-11-03 12:24:00,39.3,30.7,30.34,North,350,0.0,11.0,71,0.00,,FEW030,0.00,VWS V13.01,2013-11-03 17:24:00,
2013-11-03 12:29:00,39.2,30.6,30.34,North,360,0.0,0.0,71,0.00,,FEW030,0.00,VWS V13.01,2013-11-03 17:29:00,
2013-11-03 12:34:00,39.1,30.2,30.34,NE,35,1.0,3.0,70,0.00,,FEW030,0.00,VWS V13.01,2013-11-03 17:34:00,
2013-11-03 12:39:00,38.8,30.2,30.34,NW,309,0.0,4.0,71,0.00,,FEW030,0.00,VWS V13.01,2013-11-03 17:39:00,
2013-11-03 12:45:00,38.9,30.7,30.34,NW,326,0.0,9.0,72,0.00,,FEW030,0.00,VWS V13.01,2013-11-03 17:45:00,
2013-11-03 12:50:00,39.3,31.0,30.34,NE,49,2.0,9.0,72,0.00,,FEW030,0.00,VWS V13.01,2013-11-03 17:50:00,
2013-11-03 12:55:00,39.2,30.6,30.34,NNW,340,2.0,9.0,71,0.00,,FEW030,0.00,VWS V13.01,2013-11-03 17:55:00,
2013-11-03 13:00:00,39.1,30.9,30.34,NNW,338,0.0,0.0,72,0.00,,FEW030,0.00,VWS V13.01,2013-11-03 18:00:00,
2013-11-03 13:05:00,39.2,30.6,30.34,East,80,3.0,3.0,71,0.00,,SCT032,0.00,VWS V13.01,2013-11-03 18:05:00,
2013-11-03 13:10:00,39.4,31.1,30.34,NNW,346,0.0,5.0,72,0.00,,SCT032,0.00,VWS V13.01,2013-11-03 18:10:00,
2013-11-03 13:15:00,39.3,30.7,30.34,North,355,0.0,5.0,71,0.00,,SCT032,0.00,VWS V13.01,2013-11-03 18:15:00,
2013-11-03 13:20:00,39.3,30.7,30.34,North,360,0.0,6.0,71,0.00,,SCT032,0.00,VWS V13.01,2013-11-03 18:20:00,
2013-11-03 13:25:00,39.1,30.9,30.34,NNE,21,0.0,6.0,72,0.00,,SCT032,0.00,VWS V13.01,2013-11-03 18:25:00,
2013-11-03 13:30:00,39.2,31.0,30.34,NNW,332,4.0,4.0,72,0.00,,SCT032,0.00,VWS V13.01,2013-11-03 18:30:00,
2013-11-03 13:35:00,39.0,30.4,30.34,NE,42,0.0,6.0,71,0.00,,SCT032,0.00,VWS V13.01,2013-11-03 18:35:00,
2013-11-03 13:40:00,38.9,30.3,30.34,NW,311,0.0,6.0,71,0.00,,SCT032,0.00,VWS V13.01,2013-11-03 18:40:00,
2013-11-03 13:45:00,39.2,31.0,30.35,ENE,68,0.0,6.0,72,0.00,,SCT032,0.00,VWS V13.01,2013-11-03 18:45:00,
2013-11-03 13:50:00,39.4,30.4,30.35,WNW,287,4.0,6.0,70,0.00,,SCT032,0.00,VWS V13.01,2013-11-03 18:50:00,
2013-11-03 13:55:00,39.1,30.2,30.35,ENE,68,2.0,6.0,70,0.00,,SCT032,0.00,VWS V13.01,2013-11-03 18:55:00,
2013-11-03 14:00:00,38.7,30.1,30.35,North,11,0.0,5.0,71,0.00,,SCT030,0.00,VWS V13.01,2013-11-03 19:00:00,
2013-11-03 14:05:00,38.5,29.2,30.35,NE,52,0.0,5.0,69,0.00,,SCT030,0.00,VWS V13.01,2013-11-03 19:05:00,
2013-11-03 14:10:00,38.4,29.5,30.35,NNW,346,2.0,5.0,70,0.00,,SCT030,0.00,VWS V13.01,2013-11-03 19:10:00,
2013-11-03 14:15:00,38.4,29.1,30.35,WNW,283,2.0,6.0,69,0.00,,SCT030,0.00,VWS V13.01,2013-11-03 19:15:00,
2013-11-03 14:20:00,38.5,28.9,30.35,North,355,0.0,6.0,68,0.00,,SCT030,0.00,VWS V13.01,2013-11-03 19:20:00,
2013-11-03 14:25:00,38.5,28.9,30.35,WNW,284,0.0,9.0,68,0.00,,SCT030,0.00,VWS V13.01,2013-11-03 19:25:00,
2013-11-03 14:30:00,38.6,29.0,30.36,NE,34,2.0,7.0,68,0.00,,SCT030,0.00,VWS V13.01,2013-11-03 19:30:00,
2013-11-03 14:35:00,38.7,28.7,30.36,NNW,342,0.0,9.0,67,0.00,,SCT030,0.00,VWS V13.01,2013-11-03 19:35:00,
2013-11-03 14:40:00,38.6,29.0,30.36,ESE,113,0.0,9.0,68,0.00,,SCT030,0.00,VWS V13.01,2013-11-03 19:40:00,
2013-11-03 14:45:00,38.7,29.1,30.36,North,360,1.0,9.0,68,0.00,,SCT030,0.00,VWS V13.01,2013-11-03 19:45:00,
2013-11-03 14:50:00,38.7,28.7,30.37,North,360,2.0,9.0,67,0.00,,SCT030,0.00,VWS V13.01,2013-11-03 19:50:00,
2013-11-03 14:55:00,38.3,29.0,30.37,NE,51,1.0,9.0,69,0.00,,SCT030,0.00,VWS V13.01,2013-11-03 19:55:00,
2013-11-03 15:00:00,38.3,29.4,30.37,WNW,296,2.0,5.0,70,0.00,,SCT030,0.00,VWS V13.01,2013-11-03 20:00:00,
2013-11-03 15:06:00,38.4,29.5,30.37,NNE,24,0.0,5.0,70,0.00,,SCT030,0.00,VWS V13.01,2013-11-03 20:06:00,
2013-11-03 15:11:00,38.7,29.8,30.38,WNW,290,0.0,7.0,70,0.00,,SCT030,0.00,VWS V13.01,2013-11-03 20:11:00,
2013-11-03 15:16:00,38.7,29.4,30.38,East,93,3.0,9.0,69,0.00,,SCT030,0.00,VWS V13.01,2013-11-03 20:16:00,
2013-11-03 15:21:00,38.5,29.2,30.38,North,355,2.0,10.0,69,0.00,,SCT030,0.00,VWS V13.01,2013-11-03 20:21:00,
2013-11-03 15:26:00,38.7,29.1,30.39,NE,51,0.0,10.0,68,0.00,,SCT030,0.00,VWS V13.01,2013-11-03 20:26:00,
2013-11-03 15:31:00,38.6,29.0,30.39,ENE,78,0.0,3.0,68,0.00,,SCT030,0.00,VWS V13.01,2013-11-03 20:31:00,
2013-11-03 15:36:00,38.4,28.8,30.39,NNW,332,3.0,3.0,68,0.00,,SCT030,0.00,VWS V13.01,2013-11-03 20:36:00,
2013-11-03 15:41:00,38.0,28.4,30.39,ENE,70,3.0,4.0,68,0.00,,SCT030,0.00,VWS V13.01,2013-11-03 20:41:00,
2013-11-03 15:46:00,37.6,28.4,30.39,ENE,64,1.0,6.0,69,0.00,,SCT030,0.00,VWS V13.01,2013-11-03 20:46:00,
2013-11-03 15:51:00,37.4,28.2,30.39,WNW,298,0.0,6.0,69,0.00,,SCT030,0.00,VWS V13.01,2013-11-03 20:51:00,
2013-11-03 15:56:00,37.2,28.0,30.39,ENE,76,0.0,6.0,69,0.00,,SCT030,0.00,VWS V13.01,2013-11-03 20:56:00,
2013-11-03 16:01:00,37.1,28.2,30.39,ENE,66,3.0,3.0,70,0.00,,SCT032,0.00,VWS V13.01,2013-11-03 21:01:00,
2013-11-03 16:06:00,37.1,28.2,30.39,NE,53,0.0,5.0,70,0.00,,SCT032,0.00,VWS V13.01,2013-11-03 21:06:00,
2013-11-03 16:11:00,37.1,28.6,30.39,WNW,286,1.0,5.0,71,0.00,,SCT032,0.00,VWS V13.01,2013-11-03 21:11:00,
2013-11-03 16:16:00,37.1,28.6,30.39,ENE,65,3.0,6.0,71,0.00,,SCT032,0.00,VWS V13.01,2013-11-03 21:16:00,
2013-11-03 16:21:00,37.0,28.5,30.39,WNW,295,1.0,7.0,71,0.00,,SCT032,0.00,VWS V13.01,2013-11-03 21:21:00,
2013-11-03 16:26:00,36.8,28.3,30.39,ENE,59,2.0,7.0,71,0.00,,SCT032,0.00,VWS V13.01,2013-11-03 21:26:00,
2013-11-03 16:31:00,36.6,28.1,30.39,ENE,59,0.0,1.0,71,0.00,,SCT032,0.00,VWS V13.01,2013-11-03 21:31:00,
2013-11-03 16:36:00,36.5,28.0,30.39,NNW,348,0.0,5.0,71,0.00,,SCT032,0.00,VWS V13.01,2013-11-03 21:36:00,
2013-11-03 16:41:00,36.3,27.8,30.39,WNW,284,0.0,5.0,71,0.00,,SCT032,0.00,VWS V13.01,2013-11-03 21:41:00,
2013-11-03 16:46:00,36.2,28.1,30.39,NE,49,0.0,5.0,72,0.00,,SCT032,0.00,VWS V13.01,2013-11-03 21:46:00,
2013-11-03 16:51:00,36.0,27.5,30.39,NE,50,0.0,5.0,71,0.00,,SCT032,0.00,VWS V13.01,2013-11-03 21:51:00,
2013-11-03 16:56:00,35.9,27.8,30.39,NE,49,1.0,5.0,72,0.00,,SCT032,0.00,VWS V13.01,2013-11-03 21:56:00,
2013-11-03 17:01:00,35.7,27.6,30.39,NE,39,0.0,1.0,72,0.00,,CLR,0.00,VWS V13.01,2013-11-03 22:01:00,
2013-11-03 17:06:00,35.5,27.7,30.39,NNE,17,0.0,3.0,73,0.00,,CLR,0.00,VWS V13.01,2013-11-03 22:06:00,
2013-11-03 17:11:00,35.3,27.5,30.40,NNE,15,0.0,3.0,73,0.00,,CLR,0.00,VWS V13.01,2013-11-03 22:11:00,
2013-11-03 17:16:00,35.2,27.4,30.40,NE,43,0.0,3.0,73,0.00,,CLR,0.00,VWS V13.01,2013-11-03 22:16:00,
2013-11-03 17:21:00,35.0,27.2,30.40,NE,43,0.0,3.0,73,0.00,,CLR,0.00,VWS V13.01,2013-11-03 22:21:00,
2013-11-03 17:26:00,34.9,27.5,30.41,NE,45,0.0,3.0,74,0.00,,CLR,0.00,VWS V13.01,2013-11-03 22:26:00,
2013-11-03 17:31:00,34.7,27.3,30.41,NE,45,0.0,1.0,74,0.00,,CLR,0.00,VWS V13.01,2013-11-03 22:31:00,
2013-11-03 17:36:00,34.6,27.2,30.41,NE,45,0.0,1.0,74,0.00,,CLR,0.00,VWS V13.01,2013-11-03 22:36:00,
2013-11-03 17:41:00,34.4,27.3,30.41,NE,45,0.0,1.0,75,0.00,,CLR,0.00,VWS V13.01,2013-11-03 22:41:00,
2013-11-03 17:46:00,34.4,27.3,30.41,NE,45,0.0,1.0,75,0.00,,CLR,0.00,VWS V13.01,2013-11-03 22:46:00,
2013-11-03 17:51:00,34.2,27.4,30.41,NE,45,0.0,1.0,76,0.00,,CLR,0.00,VWS V13.01,2013-11-03 22:51:00,
2013-11-03 17:56:00,33.9,27.5,30.41,NE,45,0.0,1.0,77,0.00,,CLR,0.00,VWS V13.01,2013-11-03 22:56:00,
2013-11-03 18:02:00,33.6,27.2,30.41,NE,45,0.0,0.0,77,0.00,,CLR,0.00,VWS V13.01,2013-11-03 23:02:00,
2013-11-03 18:07:00,33.4,27.3,30.41,NE,45,0.0,0.0,78,0.00,,CLR,0.00,VWS V13.01,2013-11-03 23:07:00,
2013-11-03 18:12:00,33.1,27.3,30.41,NE,45,0.0,0.0,79,0.00,,CLR,0.00,VWS V13.01,2013-11-03 23:12:00,
2013-11-03 18:17:00,32.9,27.1,30.41,NE,45,0.0,0.0,79,0.00,,CLR,0.00,VWS V13.01,2013-11-03 23:17:00,
2013-11-03 18:22:00,32.6,27.1,30.42,NE,45,0.0,0.0,80,0.00,,CLR,0.00,VWS V13.01,2013-11-03 23:22:00,
2013-11-03 18:27:00,32.4,27.2,30.42,NE,45,0.0,0.0,81,0.00,,CLR,0.00,VWS V13.01,2013-11-03 23:27:00,
2013-11-03 18:32:00,32.2,27.0,30.42,NE,45,0.0,0.0,81,0.00,,CLR,0.00,VWS V13.01,2013-11-03 23:32:00,
2013-11-03 18:37:00,31.9,27.0,30.43,NE,45,0.0,0.0,82,0.00,,CLR,0.00,VWS V13.01,2013-11-03 23:37:00,
2013-11-03 18:42:00,31.8,26.9,30.43,NE,45,0.0,0.0,82,0.00,,CLR,0.00,VWS V13.01,2013-11-03 23:42:00,
2013-11-03 18:47:00,31.6,27.0,30.43,NE,45,0.0,0.0,83,0.00,,CLR,0.00,VWS V13.01,2013-11-03 23:47:00,
2013-11-03 18:52:00,31.5,26.9,30.43,NE,45,0.0,0.0,83,0.00,,CLR,0.00,VWS V13.01,2013-11-03 23:52:00,
2013-11-03 18:57:00,31.5,26.9,30.43,NE,45,0.0,0.0,83,0.00,,CLR,0.00,VWS V13.01,2013-11-03 23:57:00,
2013-11-03 19:02:00,31.4,26.8,30.44,NE,45,0.0,0.0,83,0.00,,CLR,0.00,VWS V13.01,2013-11-04 00:02:00,
2013-11-03 19:07:00,31.3,27.0,30.44,NE,45,0.0,0.0,84,0.00,,CLR,0.00,VWS V13.01,2013-11-04 00:07:00,
2013-11-03 19:12:00,31.2,26.9,30.44,NE,45,0.0,0.0,84,0.00,,CLR,0.00,VWS V13.01,2013-11-04 00:12:00,
2013-11-03 19:17:00,31.0,26.7,30.44,NE,45,0.0,0.0,84,0.00,,CLR,0.00,VWS V13.01,2013-11-04 00:17:00,
2013-11-03 19:22:00,30.9,26.9,30.44,NE,45,0.0,0.0,85,0.00,,CLR,0.00,VWS V13.01,2013-11-04 00:22:00,
2013-11-03 19:27:00,30.7,26.7,30.45,NE,45,0.0,0.0,85,0.00,,CLR,0.00,VWS V13.01,2013-11-04 00:27:00,
2013-11-03 19:32:00,30.6,26.6,30.45,NE,45,0.0,0.0,85,0.00,,CLR,0.00,VWS V13.01,2013-11-04 00:32:00,
2013-11-03 19:37:00,30.4,26.7,30.46,NE,45,0.0,0.0,86,0.00,,CLR,0.00,VWS V13.01,2013-11-04 00:37:00,
2013-11-03 19:42:00,30.3,26.6,30.46,NE,45,0.0,0.0,86,0.00,,CLR,0.00,VWS V13.01,2013-11-04 00:42:00,
2013-11-03 19:47:00,30.1,26.7,30.45,NE,45,0.0,0.0,87,0.00,,CLR,0.00,VWS V13.01,2013-11-04 00:47:00,
2013-11-03 19:52:00,30.1,26.7,30.46,NE,45,0.0,0.0,87,0.00,,CLR,0.00,VWS V13.01,2013-11-04 00:52:00,
2013-11-03 19:57:00,30.0,26.6,30.46,NE,45,0.0,0.0,87,0.00,,CLR,0.00,VWS V13.01,2013-11-04 00:57:00,
2013-11-03 20:02:00,30.1,27.0,30.45,NE,45,0.0,0.0,88,0.00,,CLR,0.00,VWS V13.01,2013-11-04 01:02:00,
2013-11-03 20:07:00,30.1,27.0,30.46,NE,45,0.0,0.0,88,0.00,,CLR,0.00,VWS V13.01,2013-11-04 01:07:00,
2013-11-03 20:12:00,30.1,27.0,30.46,NE,45,0.0,0.0,88,0.00,,CLR,0.00,VWS V13.01,2013-11-04 01:12:00,
2013-11-03 20:17:00,30.1,27.0,30.46,NE,45,0.0,0.0,88,0.00,,CLR,0.00,VWS V13.01,2013-11-04 01:17:00,
2013-11-03 20:22:00,30.1,27.0,30.46,NE,45,0.0,0.0,88,0.00,,CLR,0.00,VWS V13.01,2013-11-04 01:22:00,
2013-11-03 20:27:00,30.0,26.9,30.46,NE,45,0.0,0.0,88,0.00,,CLR,0.00,VWS V13.01,2013-11-04 01:27:00,
2013-11-03 20:32:00,30.0,26.9,30.45,NE,45,0.0,0.0,88,0.00,,CLR,0.00,VWS V13.01,2013-11-04 01:32:00,
2013-11-03 20:37:00,30.1,27.0,30.45,NE,45,0.0,0.0,88,0.00,,CLR,0.00,VWS V13.01,2013-11-04 01:37:00,
2013-11-03 20:42:00,30.4,27.0,30.45,NE,48,0.0,1.0,87,0.00,,CLR,0.00,VWS V13.01,2013-11-04 01:42:00,
2013-11-03 20:47:00,30.8,27.1,30.45,NE,48,0.0,1.0,86,0.00,,CLR,0.00,VWS V13.01,2013-11-04 01:47:00,
2013-11-03 20:52:00,31.1,27.1,30.46,SE,126,0.0,1.0,85,0.00,,CLR,0.00,VWS V13.01,2013-11-04 01:52:00,
2013-11-03 20:57:00,31.4,27.1,30.46,SE,126,0.0,1.0,84,0.00,,CLR,0.00,VWS V13.01,2013-11-04 01:57:00,
2013-11-03 21:02:00,31.6,27.0,30.46,SE,127,0.0,0.0,83,0.00,,CLR,0.00,VWS V13.01,2013-11-04 02:02:00,
2013-11-03 21:07:00,31.7,26.8,30.46,SE,128,0.0,0.0,82,0.00,,CLR,0.00,VWS V13.01,2013-11-04 02:07:00,
2013-11-03 21:12:00,31.7,26.8,30.47,SE,128,0.0,1.0,82,0.00,,CLR,0.00,VWS V13.01,2013-11-04 02:12:00,
2013-11-03 21:17:00,31.7,26.5,30.47,SE,128,0.0,1.0,81,0.00,,CLR,0.00,VWS V13.01,2013-11-04 02:17:00,
2013-11-03 21:22:00,31.7,26.5,30.47,SE,128,0.0,1.0,81,0.00,,CLR,0.00,VWS V13.01,2013-11-04 02:22:00,
2013-11-03 21:27:00,31.6,26.5,30.48,SE,128,0.0,1.0,81,0.00,,CLR,0.00,VWS V13.01,2013-11-04 02:27:00,
2013-11-03 21:33:00,31.6,26.5,30.48,SE,128,0.0,1.0,81,0.00,,CLR,0.00,VWS V13.01,2013-11-04 02:33:00,
2013-11-03 21:38:00,31.5,26.4,30.48,SE,128,0.0,1.0,81,0.00,,CLR,0.00,VWS V13.01,2013-11-04 02:38:00,
2013-11-03 21:43:00,31.5,26.4,30.48,SE,128,0.0,1.0,81,0.00,,CLR,0.00,VWS V13.01,2013-11-04 02:43:00,
2013-11-03 21:48:00,31.6,26.5,30.48,SE,128,0.0,1.0,81,0.00,,CLR,0.00,VWS V13.01,2013-11-04 02:48:00,
2013-11-03 21:53:00,31.6,26.1,30.48,SE,128,0.0,1.0,80,0.00,,CLR,0.00,VWS V13.01,2013-11-04 02:53:00,
2013-11-03 21:58:00,31.5,26.0,30.48,SE,128,0.0,1.0,80,0.00,,CLR,0.00,VWS V13.01,2013-11-04 02:58:00,
2013-11-03 22:03:00,31.5,26.0,30.48,SSE,160,0.0,1.0,80,0.00,,CLR,0.00,VWS V13.01,2013-11-04 03:03:00,
2013-11-03 22:08:00,31.7,25.9,30.48,SSE,163,0.0,1.0,79,0.00,,CLR,0.00,VWS V13.01,2013-11-04 03:08:00,
2013-11-03 22:13:00,31.8,26.0,30.48,SSE,164,0.0,1.0,79,0.00,,CLR,0.00,VWS V13.01,2013-11-04 03:13:00,
2013-11-03 22:18:00,31.9,25.8,30.48,SSE,163,0.0,1.0,78,0.00,,CLR,0.00,VWS V13.01,2013-11-04 03:18:00,
2013-11-03 22:23:00,31.8,25.7,30.48,SSE,163,0.0,1.0,78,0.00,,CLR,0.00,VWS V13.01,2013-11-04 03:23:00,
2013-11-03 22:28:00,31.7,25.6,30.48,SSE,163,0.0,1.0,78,0.00,,CLR,0.00,VWS V13.01,2013-11-04 03:28:00,
2013-11-03 22:33:00,31.8,25.7,30.48,SSE,164,0.0,0.0,78,0.00,,CLR,0.00,VWS V13.01,2013-11-04 03:33:00,
2013-11-03 22:38:00,31.7,25.6,30.48,SSE,163,0.0,1.0,78,0.00,,CLR,0.00,VWS V13.01,2013-11-04 03:38:00,
2013-11-03 22:43:00,31.7,25.3,30.48,SSE,163,0.0,1.0,77,0.00,,CLR,0.00,VWS V13.01,2013-11-04 03:43:00,
2013-11-03 22:48:00,31.7,25.3,30.48,SSE,163,0.0,1.0,77,0.00,,CLR,0.00,VWS V13.01,2013-11-04 03:48:00,
2013-11-03 22:53:00,31.7,25.3,30.48,SSE,163,0.0,1.0,77,0.00,,CLR,0.00,VWS V13.01,2013-11-04 03:53:00,
2013-11-03 22:58:00,31.7,25.3,30.48,SSE,164,0.0,1.0,77,0.00,,CLR,0.00,VWS V13.01,2013-11-04 03:58:00,
2013-11-03 23:03:00,31.7,25.6,30.48,SSE,164,0.0,1.0,78,0.00,,CLR,0.00,VWS V13.01,2013-11-04 04:03:00,
2013-11-03 23:08:00,31.8,25.7,30.48,SSE,157,0.0,1.0,78,0.00,,CLR,0.00,VWS V13.01,2013-11-04 04:08:00,
2013-11-03 23:13:00,31.9,25.8,30.48,South,180,0.0,4.0,78,0.00,,CLR,0.00,VWS V13.01,2013-11-04 04:13:00,
2013-11-03 23:18:00,31.9,25.8,30.48,South,180,0.0,4.0,78,0.00,,CLR,0.00,VWS V13.01,2013-11-04 04:18:00,
2013-11-03 23:23:00,31.9,25.8,30.49,South,180,0.0,4.0,78,0.00,,CLR,0.00,VWS V13.01,2013-11-04 04:23:00,
2013-11-03 23:28:00,31.9,25.8,30.49,South,180,0.0,4.0,78,0.00,,CLR,0.00,VWS V13.01,2013-11-04 04:28:00,
2013-11-03 23:33:00,32.0,25.9,30.49,East,87,0.0,1.0,78,0.00,,CLR,0.00,VWS V13.01,2013-11-04 04:33:00,
2013-11-03 23:38:00,31.9,25.8,30.49,East,87,0.0,1.0,78,0.00,,CLR,0.00,VWS V13.01,2013-11-04 04:38:00,
2013-11-03 23:43:00,31.9,25.8,30.48,East,93,0.0,1.0,78,0.00,,CLR,0.00,VWS V13.01,2013-11-04 04:43:00,
2013-11-03 23:48:00,31.9,25.8,30.48,SE,144,0.0,3.0,78,0.00,,CLR,0.00,VWS V13.01,2013-11-04 04:48:00,
2013-11-03 23:53:00,31.8,25.7,30.49,SSE,154,0.0,3.0,78,0.00,,CLR,0.00,VWS V13.01,2013-11-04 04:53:00,
2013-11-03 23:58:00,31.6,25.5,30.49,SSE,155,0.0,3.0,78,0.00,,CLR,0.00,VWS V13.01,2013-11-04 04:58:00,